createdAt,value
2022-09-14T00:02:48.361Z,1.52
2022-09-14T00:05:50.004Z,1.17
2022-09-14T00:08:54.089Z,1.15
2022-09-14T00:11:56.262Z,1.17
2022-09-14T00:14:58.029Z,1.40
2022-09-14T00:17:59.527Z,1.23
2022-09-14T00:21:06.987Z,1.17
2022-09-14T00:24:11.484Z,1.20
2022-09-14T00:27:13.289Z,1.33
2022-09-14T00:30:15.035Z,1.13
2022-09-14T00:33:16.678Z,1.27
2022-09-14T00:36:27.719Z,1.25
2022-09-14T00:39:29.463Z,1.20
2022-09-14T00:42:31.182Z,1.10
2022-09-14T00:45:32.983Z,1.20
2022-09-14T00:48:34.901Z,1.25
2022-09-14T00:51:41.590Z,1.10
2022-09-14T00:54:55.344Z,1.23
2022-09-14T00:57:57.181Z,1.40
2022-09-14T01:00:59.044Z,1.25
2022-09-14T01:04:00.856Z,1.27
2022-09-14T01:07:43.251Z,1.00
2022-09-14T01:11:19.781Z,1.13
2022-09-14T01:14:48.640Z,1.02
2022-09-14T01:18:18.925Z,1.13
2022-09-14T01:21:32.688Z,1.20
2022-09-14T01:24:55.892Z,1.50
2022-09-14T01:28:02.077Z,1.27
2022-09-14T01:31:12.102Z,1.35
2022-09-14T01:34:39.348Z,1.00
2022-09-14T01:37:47.392Z,1.10
2022-09-14T01:40:50.786Z,1.40
2022-09-14T01:44:05.594Z,1.63
2022-09-14T01:47:16.564Z,1.10
2022-09-14T01:50:41.458Z,1.15
2022-09-14T01:54:06.523Z,1.05
2022-09-14T01:57:31.952Z,0.90
2022-09-14T02:00:34.659Z,1.00
2022-09-14T02:04:04.295Z,0.90
2022-09-14T02:07:06.879Z,1.10
2022-09-14T02:10:13.535Z,0.70
2022-09-14T02:13:15.250Z,0.90
2022-09-14T02:16:18.241Z,0.93
2022-09-14T02:19:23.652Z,1.30
2022-09-14T02:22:27.419Z,0.90
2022-09-14T02:25:29.143Z,0.73
2022-09-14T02:28:31.036Z,0.80
2022-09-14T02:32:04.794Z,0.80
2022-09-14T02:35:22.230Z,0.80
2022-09-14T02:38:50.570Z,1.92
2022-09-14T02:42:20.673Z,0.75
2022-09-14T02:45:28.985Z,0.80
2022-09-14T02:49:08.382Z,1.00
2022-09-14T02:52:31.067Z,0.80
2022-09-14T02:55:41.812Z,1.00
2022-09-14T03:01:46.199Z,0.95
2022-09-14T03:04:48.929Z,0.90
2022-09-14T03:07:50.619Z,0.95
2022-09-14T03:10:52.188Z,0.90
2022-09-14T03:13:53.791Z,1.00
2022-09-14T03:16:55.593Z,0.90
2022-09-14T03:19:57.184Z,1.35
2022-09-14T03:22:59.376Z,1.00
2022-09-14T03:26:01.185Z,0.90
2022-09-14T03:29:05.558Z,0.90
2022-09-14T03:32:10.986Z,0.73
2022-09-14T03:35:13.543Z,0.70
2022-09-14T03:38:15.317Z,1.15
2022-09-14T03:41:17.386Z,0.70
2022-09-14T03:44:19.065Z,0.93
2022-09-14T03:47:20.699Z,1.08
2022-09-14T03:50:22.341Z,0.88
2022-09-14T03:53:24.052Z,0.80
2022-09-14T03:56:25.738Z,0.90
2022-09-14T03:59:27.483Z,0.90
2022-09-14T04:02:29.859Z,1.00
2022-09-14T04:05:31.590Z,1.10
2022-09-14T04:08:36.190Z,1.00
2022-09-14T04:11:37.998Z,1.10
2022-09-14T04:14:39.534Z,0.93
2022-09-14T04:17:41.135Z,0.85
2022-09-14T04:20:42.710Z,1.10
2022-09-14T04:24:13.546Z,0.82
2022-09-14T04:27:06.518Z,1.00
2022-09-14T04:30:08.477Z,1.13
2022-09-14T04:33:10.138Z,1.10
2022-09-14T04:36:16.219Z,1.35
2022-09-14T04:39:18.067Z,1.00
2022-09-14T04:42:19.684Z,1.15
2022-09-14T04:45:21.365Z,1.30
2022-09-14T04:48:23.992Z,1.10
2022-09-14T04:51:29.614Z,1.15
2022-09-14T04:54:31.207Z,1.50
2022-09-14T04:57:32.871Z,1.55
2022-09-14T05:00:36.106Z,1.10
2022-09-14T05:03:39.043Z,1.23
2022-09-14T05:06:42.813Z,1.40
2022-09-14T05:09:44.494Z,1.00
2022-09-14T05:12:46.155Z,1.00
2022-09-14T05:15:47.911Z,1.20
2022-09-14T05:18:50.821Z,1.30
2022-09-14T05:21:54.010Z,1.00
2022-09-14T05:24:55.696Z,1.30
2022-09-14T05:27:57.463Z,1.30
2022-09-14T05:31:04.613Z,1.27
2022-09-14T05:34:06.383Z,1.75
2022-09-14T05:37:08.051Z,1.27
2022-09-14T05:40:10.418Z,1.45
2022-09-14T05:43:12.311Z,1.23
2022-09-14T05:46:22.245Z,1.30
2022-09-14T05:49:25.300Z,1.20
2022-09-14T05:52:30.076Z,0.95
2022-09-14T05:55:32.009Z,0.80
2022-09-14T05:58:36.314Z,1.20
2022-09-14T06:01:38.071Z,0.90
2022-09-14T06:04:39.900Z,1.15
2022-09-14T06:07:42.121Z,1.20
2022-09-14T06:10:44.341Z,1.05
2022-09-14T06:13:47.169Z,1.10
2022-09-14T06:16:49.050Z,1.20
2022-09-14T06:19:50.732Z,1.10
2022-09-14T06:22:52.519Z,1.30
2022-09-14T06:25:56.127Z,1.30
2022-09-14T06:28:57.829Z,2.10
2022-09-14T06:31:59.594Z,1.60
2022-09-14T06:35:01.272Z,1.40
2022-09-14T06:38:02.931Z,1.38
2022-09-14T06:41:07.091Z,1.10
2022-09-14T06:44:09.290Z,1.30
2022-09-14T06:47:10.909Z,1.25
2022-09-14T06:50:12.606Z,1.13
2022-09-14T06:53:14.393Z,1.17
2022-09-14T06:56:16.706Z,1.10
2022-09-14T06:59:18.683Z,1.20
2022-09-14T07:02:20.660Z,1.10
2022-09-14T07:05:22.920Z,1.30
2022-09-14T07:08:28.056Z,1.48
2022-09-14T07:11:29.953Z,1.30
2022-09-14T07:14:32.522Z,1.65
2022-09-14T07:17:36.375Z,1.50
2022-09-14T07:20:38.169Z,1.70
2022-09-14T07:23:42.048Z,1.20
2022-09-14T07:26:43.946Z,1.25
2022-09-14T07:29:45.563Z,1.20
2022-09-14T07:32:47.319Z,1.40
2022-09-14T07:35:49.187Z,1.60
2022-09-14T07:38:53.153Z,1.70
2022-09-14T07:41:55.630Z,1.27
2022-09-14T07:44:57.504Z,1.35
2022-09-14T07:47:59.435Z,1.35
2022-09-14T07:51:10.433Z,1.20
2022-09-14T07:54:14.829Z,2.08
2022-09-14T07:57:17.040Z,1.50
2022-09-14T08:00:18.951Z,1.67
2022-09-14T08:03:20.803Z,1.83
2022-09-14T08:06:25.864Z,1.52
2022-09-14T08:09:27.993Z,1.80
2022-09-14T08:12:29.809Z,1.95
2022-09-14T08:15:31.930Z,1.70
2022-09-14T08:18:35.731Z,1.52
2022-09-14T08:21:39.142Z,1.45
2022-09-14T08:24:44.027Z,1.83
2022-09-14T08:27:45.772Z,1.30
2022-09-14T08:30:47.489Z,1.58
2022-09-14T08:33:55.012Z,1.30
2022-09-14T08:36:56.848Z,1.88
2022-09-14T08:39:58.575Z,1.00
2022-09-14T08:43:04.151Z,1.30
2022-09-14T08:46:12.458Z,1.42
2022-09-14T08:49:52.250Z,1.45
2022-09-14T08:52:55.255Z,1.60
2022-09-14T08:56:02.830Z,1.20
2022-09-14T08:59:21.611Z,1.35
2022-09-14T09:02:32.273Z,1.13
2022-09-14T09:06:11.869Z,1.20
2022-09-14T09:09:39.631Z,1.40
2022-09-14T09:12:57.684Z,0.98
2022-09-14T09:16:05.814Z,1.20
2022-09-14T09:19:18.823Z,0.73
2022-09-14T09:22:23.999Z,0.80
2022-09-14T09:25:32.079Z,1.00
2022-09-14T09:28:34.433Z,1.02
2022-09-14T09:31:40.444Z,0.90
2022-09-14T09:35:24.801Z,1.35
2022-09-14T09:38:49.459Z,1.50
2022-09-14T09:42:21.921Z,1.25
2022-09-14T09:45:23.593Z,1.10
2022-09-14T09:48:28.645Z,1.00
2022-09-14T09:51:33.291Z,1.10
2022-09-14T09:54:35.667Z,0.90
2022-09-14T09:57:37.850Z,1.00
2022-09-14T10:00:39.509Z,1.02
2022-09-14T10:03:41.332Z,1.00
2022-09-14T10:06:50.066Z,1.10
2022-09-14T10:10:06.904Z,0.98
2022-09-14T10:13:47.270Z,0.95
2022-09-14T10:16:49.081Z,0.85
2022-09-14T10:19:52.972Z,0.85
2022-09-14T10:22:54.760Z,1.20
2022-09-14T10:26:14.937Z,1.20
2022-09-14T10:29:28.923Z,1.40
2022-09-14T10:32:32.477Z,1.20
2022-09-14T10:35:53.585Z,1.00
2022-09-14T10:39:03.985Z,1.00
2022-09-14T10:45:31.558Z,0.93
2022-09-14T10:49:14.741Z,0.85
2022-09-14T10:52:30.350Z,1.20
2022-09-14T10:55:46.021Z,1.27
2022-09-14T10:59:12.327Z,1.00
2022-09-14T11:02:32.709Z,1.05
2022-09-14T11:05:53.112Z,0.70
2022-09-14T11:09:08.820Z,0.93
2022-09-14T11:12:26.739Z,0.80
2022-09-14T11:15:48.789Z,0.95
2022-09-14T11:18:51.457Z,0.85
2022-09-14T11:22:22.668Z,0.82
2022-09-14T11:25:33.550Z,0.90
2022-09-14T11:28:42.357Z,1.10
2022-09-14T11:32:20.454Z,0.80
2022-09-14T11:35:45.144Z,0.77
2022-09-14T11:38:53.379Z,0.90
2022-09-14T11:42:14.441Z,1.08
2022-09-14T11:45:22.832Z,1.05
2022-09-14T11:48:43.865Z,0.88
2022-09-14T11:52:04.200Z,0.80
2022-09-14T11:55:15.396Z,0.90
2022-09-14T11:58:31.216Z,1.00
2022-09-14T12:01:38.650Z,1.15
2022-09-14T12:05:09.426Z,0.90
2022-09-14T12:08:33.798Z,1.02
2022-09-14T12:11:36.512Z,0.70
2022-09-14T12:14:40.693Z,0.77
2022-09-14T12:17:43.110Z,0.80
2022-09-14T12:20:52.606Z,0.90
2022-09-14T12:23:57.740Z,0.80
2022-09-14T12:27:15.322Z,0.80
2022-09-14T12:30:56.216Z,1.10
2022-09-14T12:34:18.032Z,1.00
2022-09-14T12:37:37.674Z,1.00
2022-09-14T12:40:39.346Z,1.03
2022-09-14T12:43:49.841Z,0.80
2022-09-14T12:46:51.800Z,1.00
2022-09-14T12:49:57.037Z,0.95
2022-09-14T12:53:14.342Z,0.73
2022-09-14T12:56:23.933Z,1.27
2022-09-14T12:59:50.432Z,1.20
2022-09-14T13:03:18.952Z,1.17
2022-09-14T13:06:22.983Z,0.75
2022-09-14T13:09:28.502Z,0.80
2022-09-14T13:12:40.202Z,0.80
2022-09-14T13:15:52.720Z,0.80
2022-09-14T13:19:02.043Z,1.35
2022-09-14T13:22:18.474Z,0.90
2022-09-14T13:25:39.257Z,1.00
2022-09-14T13:28:45.377Z,1.00
2022-09-14T13:31:47.490Z,1.15
2022-09-14T13:34:49.315Z,0.90
2022-09-14T13:37:51.114Z,0.80
2022-09-14T13:40:55.377Z,0.80
2022-09-14T13:43:58.388Z,0.90
2022-09-14T13:47:05.730Z,0.88
2022-09-14T13:50:08.242Z,1.00
2022-09-14T13:53:43.859Z,1.08
2022-09-14T13:56:45.503Z,1.08
2022-09-14T14:00:14.982Z,0.88
2022-09-14T14:03:41.959Z,0.80
2022-09-14T14:06:45.945Z,1.27
2022-09-14T14:09:56.940Z,0.90
2022-09-14T14:13:00.640Z,1.05
2022-09-14T14:16:23.663Z,1.10
2022-09-14T14:19:28.504Z,1.02
2022-09-14T14:22:33.492Z,0.90
2022-09-14T14:25:43.471Z,1.00
2022-09-14T14:28:48.076Z,0.82
2022-09-14T14:31:50.432Z,0.82
2022-09-14T14:34:55.360Z,1.80
2022-09-14T14:37:57.383Z,1.15
2022-09-14T14:40:59.127Z,0.60
2022-09-14T14:44:01.508Z,1.10
2022-09-14T14:47:05.604Z,0.80
2022-09-14T14:50:15.775Z,0.70
2022-09-14T14:53:17.470Z,0.90
2022-09-14T14:56:19.790Z,0.80
2022-09-14T14:59:21.751Z,0.80
2022-09-14T15:02:23.431Z,0.90
2022-09-14T15:05:26.185Z,0.80
2022-09-14T15:08:28.071Z,0.90
2022-09-14T15:11:30.701Z,1.13
2022-09-14T15:14:32.495Z,1.25
2022-09-14T15:17:34.255Z,0.93
2022-09-14T15:20:36.020Z,0.80
2022-09-14T15:23:37.812Z,1.15
2022-09-14T15:26:39.920Z,1.10
2022-09-14T15:29:41.643Z,0.75
2022-09-14T15:32:43.484Z,1.02
2022-09-14T15:35:45.481Z,1.00
2022-09-14T15:38:47.197Z,1.02
2022-09-14T15:41:49.738Z,1.00
2022-09-14T15:44:51.610Z,1.10
2022-09-14T15:47:53.219Z,0.95
2022-09-14T15:50:57.680Z,1.10
2022-09-14T15:54:02.812Z,1.27
2022-09-14T15:57:10.446Z,0.82
2022-09-14T16:00:13.995Z,1.00
2022-09-14T16:03:15.764Z,0.90
2022-09-14T16:06:17.551Z,1.00
2022-09-14T16:09:22.222Z,0.90
2022-09-14T16:12:24.156Z,1.10
2022-09-14T16:15:25.941Z,1.00
2022-09-14T16:18:27.654Z,1.20
2022-09-14T16:21:31.020Z,1.30
2022-09-14T16:24:32.719Z,1.10
2022-09-14T16:27:34.821Z,0.85
2022-09-14T16:30:36.651Z,1.00
2022-09-14T16:33:40.271Z,1.20
2022-09-14T16:36:42.849Z,1.10
2022-09-14T16:39:44.803Z,1.10
2022-09-14T16:42:48.301Z,1.15
2022-09-14T16:46:04.392Z,1.67
2022-09-14T16:49:06.870Z,1.05
2022-09-14T16:52:08.668Z,1.23
2022-09-14T16:55:10.361Z,1.17
2022-09-14T16:58:12.552Z,1.20
2022-09-14T17:01:20.390Z,1.55
2022-09-14T17:04:23.785Z,1.30
2022-09-14T17:07:25.880Z,1.13
2022-09-14T17:10:27.700Z,1.85
2022-09-14T17:13:30.070Z,1.45
2022-09-14T17:16:32.497Z,1.77
2022-09-14T17:19:34.224Z,1.33
2022-09-14T17:22:37.172Z,1.40
2022-09-14T17:25:38.793Z,1.80
2022-09-14T17:28:44.416Z,1.30
2022-09-14T17:31:46.312Z,1.48
2022-09-14T17:34:48.049Z,1.98
2022-09-14T17:37:49.873Z,1.80
2022-09-14T17:40:51.886Z,1.73
2022-09-14T17:44:00.057Z,1.70
2022-09-14T17:47:01.826Z,2.08
2022-09-14T17:50:04.087Z,1.63
2022-09-14T17:53:05.841Z,2.00
2022-09-14T17:56:09.159Z,2.35
2022-09-14T17:59:13.926Z,1.75
2022-09-14T18:02:15.802Z,2.22
2022-09-14T18:05:17.916Z,1.90
2022-09-14T18:08:19.694Z,1.92
2022-09-14T18:11:21.992Z,1.65
2022-09-14T18:14:24.741Z,1.77
2022-09-14T18:17:26.403Z,1.48
2022-09-14T18:20:28.091Z,1.42
2022-09-14T18:23:30.641Z,1.27
2022-09-14T18:26:32.963Z,1.33
2022-09-14T18:29:34.525Z,1.63
2022-09-14T18:32:36.231Z,1.80
2022-09-14T18:35:38.394Z,1.35
2022-09-14T18:38:40.045Z,1.40
2022-09-14T18:41:41.897Z,1.42
2022-09-14T18:44:43.741Z,1.65
2022-09-14T18:47:45.923Z,1.70
2022-09-14T18:50:47.545Z,1.60
2022-09-14T18:53:49.352Z,1.48
2022-09-14T18:56:51.237Z,1.50
2022-09-14T18:59:53.033Z,1.55
2022-09-14T19:02:56.139Z,1.83
2022-09-14T19:05:58.149Z,1.52
2022-09-14T19:08:59.851Z,1.48
2022-09-14T19:12:02.148Z,1.33
2022-09-14T19:15:04.714Z,1.40
2022-09-14T19:18:08.555Z,1.35
2022-09-14T19:21:23.379Z,1.30
2022-09-14T19:24:30.602Z,1.10
2022-09-14T19:27:32.239Z,1.40
2022-09-14T19:30:36.372Z,1.20
2022-09-14T19:33:43.205Z,1.10
2022-09-14T19:36:47.670Z,1.02
2022-09-14T19:39:49.650Z,1.13
2022-09-14T19:42:51.846Z,1.35
2022-09-14T19:45:53.791Z,1.10
2022-09-14T19:48:55.774Z,1.42
2022-09-14T19:51:57.871Z,1.50
2022-09-14T19:54:59.643Z,1.27
2022-09-14T19:58:01.401Z,1.40
2022-09-14T20:01:03.925Z,1.55
2022-09-14T20:04:07.896Z,1.23
2022-09-14T20:07:10.382Z,1.30
2022-09-14T20:10:12.376Z,1.55
2022-09-14T20:13:14.268Z,1.25
2022-09-14T20:16:23.068Z,1.30
2022-09-14T20:19:32.646Z,1.80
2022-09-14T20:22:34.323Z,1.20
2022-09-14T20:25:36.187Z,1.58
2022-09-14T20:28:40.786Z,1.85
2022-09-14T20:31:42.520Z,1.40
2022-09-14T20:34:44.249Z,2.05
2022-09-14T20:37:46.019Z,1.45
2022-09-14T20:40:47.647Z,1.63
2022-09-14T20:43:49.400Z,1.40
2022-09-14T20:46:51.836Z,1.50
2022-09-14T20:49:53.914Z,1.60
2022-09-14T20:52:56.341Z,1.42
2022-09-14T20:56:03.178Z,2.00
2022-09-14T20:59:08.342Z,1.60
2022-09-14T21:02:10.380Z,1.50
2022-09-14T21:05:12.089Z,1.83
2022-09-14T21:08:14.411Z,1.83
2022-09-14T21:11:21.868Z,1.45
2022-09-14T21:14:23.611Z,1.40
2022-09-14T21:17:25.362Z,1.48
2022-09-14T21:20:27.080Z,1.58
2022-09-14T21:23:28.763Z,1.60
2022-09-14T21:26:33.208Z,1.45
2022-09-14T21:29:34.849Z,1.52
2022-09-14T21:32:36.374Z,1.35
2022-09-14T21:35:38.127Z,1.20
2022-09-14T21:38:40.199Z,1.40
2022-09-14T21:41:43.939Z,1.50
2022-09-14T21:44:45.574Z,1.42
2022-09-14T21:47:47.359Z,1.65
2022-09-14T21:50:48.918Z,1.60
2022-09-14T21:53:55.831Z,1.55
2022-09-14T21:56:57.499Z,1.58
2022-09-14T21:59:58.994Z,1.48
2022-09-14T22:03:00.770Z,1.50
2022-09-14T22:06:07.018Z,1.45
2022-09-14T22:09:08.532Z,1.30
2022-09-14T22:12:10.605Z,1.65
2022-09-14T22:15:12.375Z,1.63
2022-09-14T22:18:15.430Z,1.30
2022-09-14T22:21:17.811Z,1.23
2022-09-14T22:24:31.298Z,1.55
2022-09-14T22:27:35.366Z,1.38
2022-09-14T22:30:37.124Z,1.70
2022-09-14T22:33:38.940Z,1.80
2022-09-14T22:36:41.076Z,1.60
2022-09-14T22:39:42.749Z,1.45
2022-09-14T22:42:44.378Z,1.42
2022-09-14T22:45:46.643Z,1.48
2022-09-14T22:48:50.417Z,1.67
2022-09-14T22:51:52.128Z,1.70
2022-09-14T22:54:53.771Z,1.77
2022-09-14T22:57:55.331Z,1.98
2022-09-14T23:00:57.954Z,1.95
2022-09-14T23:04:09.083Z,2.60
2022-09-14T23:07:10.685Z,2.55
2022-09-14T23:10:12.239Z,2.90
2022-09-14T23:13:15.222Z,2.80
2022-09-14T23:16:19.742Z,3.05
2022-09-14T23:19:21.487Z,2.97
2022-09-14T23:22:24.319Z,3.17
2022-09-14T23:25:26.042Z,2.67
2022-09-14T23:28:27.532Z,3.13
2022-09-14T23:31:31.013Z,2.90
2022-09-14T23:34:32.781Z,3.50
2022-09-14T23:37:34.506Z,3.38
2022-09-14T23:40:35.914Z,3.03
2022-09-14T23:43:37.981Z,3.65
2022-09-14T23:46:39.993Z,3.58
2022-09-14T23:49:41.491Z,3.10
2022-09-14T23:52:43.274Z,3.72
2022-09-14T23:55:46.124Z,3.78
2022-09-14T23:58:47.893Z,3.60
